sensor_id;sensor_type;location;lat;lon;timestamp;pressure;altitude;pressure_sealevel;temperature;humidity
7966;BME280;4028;43.272;26.932;2023-03-01T00:00:38;100079.41;;;5.42;100.00
7966;BME280;4028;43.272;26.932;2023-03-01T00:03:03;100088.34;;;5.40;100.00
7966;BME280;4028;43.272;26.932;2023-03-01T00:05:29;100080.56;;;5.38;100.00
7966;BME280;4028;43.272;26.932;2023-03-01T00:07:54;100087.97;;;5.46;100.00
7966;BME280;4028;43.272;26.932;2023-03-01T00:10:20;100079.84;;;5.51;100.00
7966;BME280;4028;43.272;26.932;2023-03-01T00:12:45;100083.75;;;5.43;100.00
7966;BME280;4028;43.272;26.932;2023-03-01T00:15:11;100083.25;;;5.37;100.00
7966;BME280;4028;43.272;26.932;2023-03-01T00:17:37;100081.56;;;5.36;100.00
7966;BME280;4028;43.272;26.932;2023-03-01T00:20:03;100083.25;;;5.37;100.00
7966;BME280;4028;43.272;26.932;2023-03-01T00:22:28;100073.78;;;5.34;100.00
7966;BME280;4028;43.272;26.932;2023-03-01T00:24:54;100077.09;;;5.38;100.00
7966;BME280;4028;43.272;26.932;2023-03-01T00:27:19;100074.09;;;5.44;100.00
7966;BME280;4028;43.272;26.932;2023-03-01T00:29:45;100073.09;;;5.31;100.00
7966;BME280;4028;43.272;26.932;2023-03-01T00:32:10;100063.38;;;5.33;100.00
7966;BME280;4028;43.272;26.932;2023-03-01T00:34:36;100065.44;;;5.42;100.00
7966;BME280;4028;43.272;26.932;2023-03-01T00:37:01;100054.09;;;5.41;100.00
7966;BME280;4028;43.272;26.932;2023-03-01T00:39:31;100053.47;;;5.52;100.00
7966;BME280;4028;43.272;26.932;2023-03-01T00:41:57;100044.13;;;5.48;100.00
7966;BME280;4028;43.272;26.932;2023-03-01T00:44:22;100045.03;;;5.47;100.00
7966;BME280;4028;43.272;26.932;2023-03-01T00:46:48;100045.59;;;5.52;100.00
7966;BME280;4028;43.272;26.932;2023-03-01T00:49:14;100050.97;;;5.51;100.00
7966;BME280;4028;43.272;26.932;2023-03-01T00:51:39;100049.47;;;5.61;100.00
7966;BME280;4028;43.272;26.932;2023-03-01T00:54:08;100053.31;;;5.55;100.00
7966;BME280;4028;43.272;26.932;2023-03-01T00:56:34;100060.25;;;5.56;100.00
7966;BME280;4028;43.272;26.932;2023-03-01T00:59:00;100066.75;;;5.65;100.00
7966;BME280;4028;43.272;26.932;2023-03-01T01:01:28;100071.53;;;5.58;100.00
7966;BME280;4028;43.272;26.932;2023-03-01T01:03:59;100053.16;;;5.42;100.00
7966;BME280;4028;43.272;26.932;2023-03-01T01:06:43;100032.47;;;5.52;100.00
7966;BME280;4028;43.272;26.932;2023-03-01T01:09:10;100028.38;;;5.48;100.00
7966;BME280;4028;43.272;26.932;2023-03-01T01:11:45;100028.06;;;5.38;100.00
7966;BME280;4028;43.272;26.932;2023-03-01T01:14:12;100034.69;;;5.30;100.00
7966;BME280;4028;43.272;26.932;2023-03-01T01:16:37;100036.94;;;5.36;100.00
7966;BME280;4028;43.272;26.932;2023-03-01T01:19:03;100038.97;;;5.31;100.00
7966;BME280;4028;43.272;26.932;2023-03-01T01:21:29;100029.59;;;5.27;100.00
7966;BME280;4028;43.272;26.932;2023-03-01T01:23:55;100033.06;;;5.27;100.00
7966;BME280;4028;43.272;26.932;2023-03-01T01:26:29;100036.09;;;5.35;100.00
7966;BME280;4028;43.272;26.932;2023-03-01T01:28:55;100043.22;;;5.33;100.00
7966;BME280;4028;43.272;26.932;2023-03-01T01:31:21;100043.03;;;5.36;100.00
7966;BME280;4028;43.272;26.932;2023-03-01T01:33:49;100045.66;;;5.36;100.00
7966;BME280;4028;43.272;26.932;2023-03-01T01:36:14;100039.41;;;5.39;100.00
7966;BME280;4028;43.272;26.932;2023-03-01T01:38:40;100023.06;;;5.34;100.00
7966;BME280;4028;43.272;26.932;2023-03-01T01:41:08;100020.41;;;5.19;100.00
7966;BME280;4028;43.272;26.932;2023-03-01T01:43:39;100014.94;;;5.08;100.00
7966;BME280;4028;43.272;26.932;2023-03-01T01:46:31;100029.31;;;5.17;100.00
7966;BME280;4028;43.272;26.932;2023-03-01T01:49:04;100026.59;;;5.18;100.00
7966;BME280;4028;43.272;26.932;2023-03-01T01:51:35;100025.06;;;5.14;100.00
7966;BME280;4028;43.272;26.932;2023-03-01T01:54:08;100021.03;;;5.09;100.00
7966;BME280;4028;43.272;26.932;2023-03-01T01:56:36;100008.56;;;5.12;100.00
7966;BME280;4028;43.272;26.932;2023-03-01T01:59:02;100010.94;;;5.17;100.00
7966;BME280;4028;43.272;26.932;2023-03-01T02:01:28;100012.88;;;5.13;100.00
7966;BME280;4028;43.272;26.932;2023-03-01T02:03:54;100014.09;;;5.08;100.00
7966;BME280;4028;43.272;26.932;2023-03-01T02:06:41;100015.88;;;5.07;100.00
7966;BME280;4028;43.272;26.932;2023-03-01T02:09:13;100014.81;;;5.10;100.00
7966;BME280;4028;43.272;26.932;2023-03-01T02:11:41;100028.63;;;5.13;100.00
7966;BME280;4028;43.272;26.932;2023-03-01T02:14:08;100027.47;;;5.03;100.00
7966;BME280;4028;43.272;26.932;2023-03-01T02:16:33;100027.94;;;5.10;100.00
7966;BME280;4028;43.272;26.932;2023-03-01T02:19:00;100031.34;;;5.12;100.00
7966;BME280;4028;43.272;26.932;2023-03-01T02:24:53;100034.81;;;5.12;100.00
7966;BME280;4028;43.272;26.932;2023-03-01T02:27:26;100036.81;;;5.23;100.00
7966;BME280;4028;43.272;26.932;2023-03-01T02:29:53;100039.81;;;5.17;100.00
7966;BME280;4028;43.272;26.932;2023-03-01T02:32:20;100037.19;;;5.17;100.00
7966;BME280;4028;43.272;26.932;2023-03-01T02:34:52;100033.78;;;5.15;100.00
7966;BME280;4028;43.272;26.932;2023-03-01T02:37:19;100034.03;;;5.10;100.00
7966;BME280;4028;43.272;26.932;2023-03-01T02:39:53;100026.84;;;5.14;100.00
7966;BME280;4028;43.272;26.932;2023-03-01T02:42:26;100021.84;;;5.09;100.00
7966;BME280;4028;43.272;26.932;2023-03-01T02:44:54;100021.63;;;4.98;100.00
7966;BME280;4028;43.272;26.932;2023-03-01T02:47:20;100031.69;;;4.90;100.00
7966;BME280;4028;43.272;26.932;2023-03-01T02:49:45;100027.88;;;4.95;100.00
7966;BME280;4028;43.272;26.932;2023-03-01T02:55:08;100028.09;;;4.77;100.00
7966;BME280;4028;43.272;26.932;2023-03-01T02:57:36;100026.81;;;4.84;100.00
7966;BME280;4028;43.272;26.932;2023-03-01T03:00:15;100018.31;;;4.94;100.00
7966;BME280;4028;43.272;26.932;2023-03-01T03:02:50;100016.63;;;4.93;100.00
7966;BME280;4028;43.272;26.932;2023-03-01T03:07:44;100012.03;;;5.13;100.00
7966;BME280;4028;43.272;26.932;2023-03-01T03:10:19;100005.06;;;4.98;100.00
7966;BME280;4028;43.272;26.932;2023-03-01T03:12:50;100009.63;;;4.94;100.00
7966;BME280;4028;43.272;26.932;2023-03-01T03:15:16;100008.16;;;5.04;100.00
7966;BME280;4028;43.272;26.932;2023-03-01T03:17:43;99998.69;;;5.02;100.00
7966;BME280;4028;43.272;26.932;2023-03-01T03:20:10;99994.47;;;4.99;100.00
7966;BME280;4028;43.272;26.932;2023-03-01T03:22:40;99989.91;;;5.03;100.00
7966;BME280;4028;43.272;26.932;2023-03-01T03:25:07;99954.22;;;4.84;100.00
7966;BME280;4028;43.272;26.932;2023-03-01T03:27:36;99978.25;;;4.92;100.00
7966;BME280;4028;43.272;26.932;2023-03-01T03:30:04;99986.84;;;4.94;100.00
7966;BME280;4028;43.272;26.932;2023-03-01T03:32:43;99996.53;;;4.78;100.00
7966;BME280;4028;43.272;26.932;2023-03-01T03:35:24;99995.16;;;4.87;100.00
7966;BME280;4028;43.272;26.932;2023-03-01T03:37:51;100004.88;;;4.85;100.00
7966;BME280;4028;43.272;26.932;2023-03-01T03:40:39;99996.34;;;4.97;100.00
7966;BME280;4028;43.272;26.932;2023-03-01T03:43:10;99998.97;;;4.97;100.00
7966;BME280;4028;43.272;26.932;2023-03-01T03:45:37;99989.91;;;5.03;100.00
7966;BME280;4028;43.272;26.932;2023-03-01T03:48:04;99983.53;;;5.07;100.00
7966;BME280;4028;43.272;26.932;2023-03-01T03:50:30;99993.88;;;4.94;100.00
7966;BME280;4028;43.272;26.932;2023-03-01T03:52:56;99997.25;;;4.96;100.00
7966;BME280;4028;43.272;26.932;2023-03-01T03:55:21;99995.97;;;5.03;100.00
7966;BME280;4028;43.272;26.932;2023-03-01T03:57:47;99996.50;;;4.94;100.00
7966;BME280;4028;43.272;26.932;2023-03-01T04:00:22;100001.91;;;5.07;100.00
7966;BME280;4028;43.272;26.932;2023-03-01T04:03:07;99992.78;;;4.98;100.00
7966;BME280;4028;43.272;26.932;2023-03-01T04:05:33;100009.03;;;4.89;100.00
7966;BME280;4028;43.272;26.932;2023-03-01T04:07:59;100003.63;;;4.92;100.00
7966;BME280;4028;43.272;26.932;2023-03-01T04:10:29;99994.22;;;4.88;100.00
7966;BME280;4028;43.272;26.932;2023-03-01T04:12:55;99993.63;;;4.99;100.00
7966;BME280;4028;43.272;26.932;2023-03-01T04:15:21;99996.81;;;5.04;100.00
7966;BME280;4028;43.272;26.932;2023-03-01T04:17:50;99996.81;;;5.04;100.00
7966;BME280;4028;43.272;26.932;2023-03-01T04:20:37;100000.06;;;4.93;100.00
7966;BME280;4028;43.272;26.932;2023-03-01T04:23:05;99997.81;;;5.01;100.00
7966;BME280;4028;43.272;26.932;2023-03-01T04:28:29;99994.97;;;4.90;100.00
7966;BME280;4028;43.272;26.932;2023-03-01T04:30:57;99991.25;;;4.94;100.00
7966;BME280;4028;43.272;26.932;2023-03-01T04:33:24;99992.63;;;4.85;100.00
7966;BME280;4028;43.272;26.932;2023-03-01T04:35:50;99991.78;;;4.85;100.00
7966;BME280;4028;43.272;26.932;2023-03-01T04:38:17;99997.78;;;4.87;100.00
7966;BME280;4028;43.272;26.932;2023-03-01T04:40:43;100001.66;;;4.95;100.00
7966;BME280;4028;43.272;26.932;2023-03-01T04:43:10;100012.13;;;4.95;100.00
7966;BME280;4028;43.272;26.932;2023-03-01T04:45:36;100001.75;;;4.94;100.00
7966;BME280;4028;43.272;26.932;2023-03-01T04:48:02;99995.56;;;4.95;100.00
7966;BME280;4028;43.272;26.932;2023-03-01T04:50:28;99986.75;;;4.96;100.00
7966;BME280;4028;43.272;26.932;2023-03-01T04:52:54;99987.94;;;4.90;100.00
7966;BME280;4028;43.272;26.932;2023-03-01T04:55:19;99994.56;;;4.98;100.00
7966;BME280;4028;43.272;26.932;2023-03-01T04:57:45;99997.25;;;5.12;100.00
7966;BME280;4028;43.272;26.932;2023-03-01T05:00:12;99969.66;;;5.05;100.00
7966;BME280;4028;43.272;26.932;2023-03-01T05:02:59;99995.72;;;5.08;100.00
7966;BME280;4028;43.272;26.932;2023-03-01T05:05:34;99994.47;;;4.99;100.00
7966;BME280;4028;43.272;26.932;2023-03-01T05:08:07;99992.94;;;4.95;100.00
7966;BME280;4028;43.272;26.932;2023-03-01T05:10:35;99999.81;;;4.98;100.00
7966;BME280;4028;43.272;26.932;2023-03-01T05:13:01;99990.94;;;4.84;100.00
7966;BME280;4028;43.272;26.932;2023-03-01T05:15:29;99993.56;;;4.84;100.00
7966;BME280;4028;43.272;26.932;2023-03-01T05:17:57;99998.19;;;4.95;100.00
7966;BME280;4028;43.272;26.932;2023-03-01T05:20:29;99993.63;;;4.99;100.00
7966;BME280;4028;43.272;26.932;2023-03-01T05:22:58;99990.53;;;5.06;100.00
7966;BME280;4028;43.272;26.932;2023-03-01T05:25:24;99998.25;;;5.09;100.00
7966;BME280;4028;43.272;26.932;2023-03-01T05:27:50;100005.53;;;5.04;100.00
7966;BME280;4028;43.272;26.932;2023-03-01T05:30:16;100004.53;;;5.07;100.00
7966;BME280;4028;43.272;26.932;2023-03-01T05:32:45;100004.81;;;5.16;100.00
7966;BME280;4028;43.272;26.932;2023-03-01T05:35:12;100004.06;;;5.14;100.00
7966;BME280;4028;43.272;26.932;2023-03-01T05:37:43;99999.56;;;5.16;100.00
7966;BME280;4028;43.272;26.932;2023-03-01T05:40:14;99997.81;;;5.17;100.00
7966;BME280;4028;43.272;26.932;2023-03-01T05:42:45;99997.63;;;5.20;100.00
7966;BME280;4028;43.272;26.932;2023-03-01T05:45:11;99999.03;;;5.26;100.00
7966;BME280;4028;43.272;26.932;2023-03-01T05:47:38;99998.56;;;5.19;100.00
7966;BME280;4028;43.272;26.932;2023-03-01T05:50:13;100007.63;;;5.13;100.00
7966;BME280;4028;43.272;26.932;2023-03-01T05:52:39;100000.16;;;5.21;100.00
7966;BME280;4028;43.272;26.932;2023-03-01T05:55:05;100008.31;;;5.17;100.00
7966;BME280;4028;43.272;26.932;2023-03-01T05:57:31;100010.84;;;5.18;100.00
7966;BME280;4028;43.272;26.932;2023-03-01T05:59:56;100013.59;;;5.31;100.00
7966;BME280;4028;43.272;26.932;2023-03-01T06:02:22;100004.03;;;5.30;100.00
7966;BME280;4028;43.272;26.932;2023-03-01T06:04:48;100008.97;;;5.20;100.00
7966;BME280;4028;43.272;26.932;2023-03-01T06:07:13;100015.16;;;5.19;100.00
7966;BME280;4028;43.272;26.932;2023-03-01T06:09:39;100003.22;;;5.14;100.00
7966;BME280;4028;43.272;26.932;2023-03-01T06:12:04;100010.06;;;5.16;100.00
7966;BME280;4028;43.272;26.932;2023-03-01T06:14:30;100008.22;;;5.18;100.00
7966;BME280;4028;43.272;26.932;2023-03-01T06:16:56;100007.69;;;5.28;100.00
7966;BME280;4028;43.272;26.932;2023-03-01T06:19:22;100004.28;;;5.26;100.00
7966;BME280;4028;43.272;26.932;2023-03-01T06:21:47;100007.59;;;5.29;100.00
7966;BME280;4028;43.272;26.932;2023-03-01T06:24:13;100005.28;;;5.39;100.00
7966;BME280;4028;43.272;26.932;2023-03-01T06:26:38;100009.59;;;5.40;100.00
7966;BME280;4028;43.272;26.932;2023-03-01T06:29:04;100002.38;;;5.43;100.00
7966;BME280;4028;43.272;26.932;2023-03-01T06:31:29;100000.50;;;5.45;100.00
7966;BME280;4028;43.272;26.932;2023-03-01T06:33:55;99995.72;;;5.38;100.00
7966;BME280;4028;43.272;26.932;2023-03-01T06:36:20;99993.25;;;5.35;100.00
7966;BME280;4028;43.272;26.932;2023-03-01T06:38:47;99988.69;;;5.38;100.00
7966;BME280;4028;43.272;26.932;2023-03-01T06:41:12;99982.66;;;5.22;100.00
7966;BME280;4028;43.272;26.932;2023-03-01T06:43:37;99958.38;;;5.18;100.00
7966;BME280;4028;43.272;26.932;2023-03-01T06:46:05;99986.34;;;5.34;100.00
7966;BME280;4028;43.272;26.932;2023-03-01T06:48:32;99977.53;;;5.35;100.00
7966;BME280;4028;43.272;26.932;2023-03-01T06:50:58;99986.03;;;5.24;100.00
7966;BME280;4028;43.272;26.932;2023-03-01T06:53:24;99989.66;;;5.21;100.00
7966;BME280;4028;43.272;26.932;2023-03-01T06:55:57;99989.66;;;5.21;100.00
7966;BME280;4028;43.272;26.932;2023-03-01T06:58:24;99988.13;;;5.33;100.00
7966;BME280;4028;43.272;26.932;2023-03-01T07:00:49;99995.63;;;5.39;100.00
7966;BME280;4028;43.272;26.932;2023-03-01T07:03:15;99991.03;;;5.43;100.00
7966;BME280;4028;43.272;26.932;2023-03-01T07:05:40;99983.16;;;5.43;100.00
7966;BME280;4028;43.272;26.932;2023-03-01T07:08:06;99987.09;;;5.50;100.00
7966;BME280;4028;43.272;26.932;2023-03-01T07:10:31;99983.91;;;5.45;100.00
7966;BME280;4028;43.272;26.932;2023-03-01T07:12:58;99978.09;;;5.40;100.00
7966;BME280;4028;43.272;26.932;2023-03-01T07:15:24;99976.94;;;5.30;100.00
7966;BME280;4028;43.272;26.932;2023-03-01T07:17:49;99970.00;;;5.29;100.00
7966;BME280;4028;43.272;26.932;2023-03-01T07:20:17;99977.78;;;5.30;100.00
7966;BME280;4028;43.272;26.932;2023-03-01T07:22:42;99986.13;;;5.22;100.00
7966;BME280;4028;43.272;26.932;2023-03-01T07:25:09;99993.38;;;5.33;100.00
7966;BME280;4028;43.272;26.932;2023-03-01T07:27:35;99997.56;;;5.36;100.00
7966;BME280;4028;43.272;26.932;2023-03-01T07:30:01;99990.38;;;5.39;100.00
7966;BME280;4028;43.272;26.932;2023-03-01T07:32:27;99999.56;;;5.46;100.00
7966;BME280;4028;43.272;26.932;2023-03-01T07:34:52;100001.63;;;5.41;100.00
7966;BME280;4028;43.272;26.932;2023-03-01T07:37:17;100006.59;;;5.46;100.00
7966;BME280;4028;43.272;26.932;2023-03-01T07:39:43;100008.22;;;5.48;100.00
7966;BME280;4028;43.272;26.932;2023-03-01T07:42:08;100015.50;;;5.43;100.00
7966;BME280;4028;43.272;26.932;2023-03-01T07:44:34;100015.16;;;5.50;100.00
7966;BME280;4028;43.272;26.932;2023-03-01T07:47:00;100009.41;;;5.43;100.00
7966;BME280;4028;43.272;26.932;2023-03-01T07:49:26;100014.84;;;5.40;100.00
7966;BME280;4028;43.272;26.932;2023-03-01T07:51:52;100015.31;;;5.46;100.00
7966;BME280;4028;43.272;26.932;2023-03-01T07:54:18;100012.41;;;5.51;100.00
7966;BME280;4028;43.272;26.932;2023-03-01T07:56:43;100019.66;;;5.62;100.00
7966;BME280;4028;43.272;26.932;2023-03-01T07:59:09;100015.19;;;5.64;100.00
7966;BME280;4028;43.272;26.932;2023-03-01T08:01:34;100011.91;;;5.74;100.00
7966;BME280;4028;43.272;26.932;2023-03-01T08:04:00;100004.47;;;5.67;100.00
7966;BME280;4028;43.272;26.932;2023-03-01T08:06:25;100017.22;;;5.73;100.00
7966;BME280;4028;43.272;26.932;2023-03-01T08:08:51;100017.91;;;5.77;100.00
7966;BME280;4028;43.272;26.932;2023-03-01T08:11:16;100014.34;;;5.78;100.00
7966;BME280;4028;43.272;26.932;2023-03-01T08:13:43;100020.34;;;5.80;100.00
7966;BME280;4028;43.272;26.932;2023-03-01T08:16:13;100015.53;;;5.72;100.00
7966;BME280;4028;43.272;26.932;2023-03-01T08:18:39;100021.94;;;5.82;100.00
7966;BME280;4028;43.272;26.932;2023-03-01T08:21:11;100005.59;;;5.77;100.00
7966;BME280;4028;43.272;26.932;2023-03-01T08:23:37;100010.97;;;5.90;100.00
7966;BME280;4028;43.272;26.932;2023-03-01T08:26:15;100016.41;;;5.87;100.00
7966;BME280;4028;43.272;26.932;2023-03-01T08:28:42;100007.59;;;5.73;100.00
7966;BME280;4028;43.272;26.932;2023-03-01T08:31:18;100004.19;;;5.71;100.00
7966;BME280;4028;43.272;26.932;2023-03-01T08:33:44;99997.56;;;5.80;100.00
7966;BME280;4028;43.272;26.932;2023-03-01T08:36:16;100009.00;;;5.79;100.00
7966;BME280;4028;43.272;26.932;2023-03-01T08:38:41;100016.97;;;5.78;100.00
7966;BME280;4028;43.272;26.932;2023-03-01T08:41:07;100007.41;;;5.77;100.00
7966;BME280;4028;43.272;26.932;2023-03-01T08:43:33;100010.13;;;5.75;100.00
7966;BME280;4028;43.272;26.932;2023-03-01T08:45:58;100008.91;;;5.81;100.00
7966;BME280;4028;43.272;26.932;2023-03-01T08:48:25;100002.34;;;5.73;100.00
7966;BME280;4028;43.272;26.932;2023-03-01T08:50:52;100013.13;;;5.83;100.00
7966;BME280;4028;43.272;26.932;2023-03-01T08:53:18;100012.94;;;5.86;100.00
7966;BME280;4028;43.272;26.932;2023-03-01T08:55:43;100006.44;;;5.78;100.00
7966;BME280;4028;43.272;26.932;2023-03-01T08:58:09;100004.66;;;5.78;100.00
7966;BME280;4028;43.272;26.932;2023-03-01T09:00:34;100002.97;;;5.77;100.00
7966;BME280;4028;43.272;26.932;2023-03-01T09:03:00;100004.31;;;5.70;100.00
7966;BME280;4028;43.272;26.932;2023-03-01T09:05:25;99999.91;;;5.70;100.00
7966;BME280;4028;43.272;26.932;2023-03-01T09:07:51;99995.66;;;5.82;100.00
7966;BME280;4028;43.272;26.932;2023-03-01T09:10:16;99997.78;;;5.91;100.00
7966;BME280;4028;43.272;26.932;2023-03-01T09:12:42;99994.66;;;5.85;100.00
7966;BME280;4028;43.272;26.932;2023-03-01T09:15:08;99999.13;;;5.83;100.00
7966;BME280;4028;43.272;26.932;2023-03-01T09:17:34;99989.03;;;5.91;100.00
7966;BME280;4028;43.272;26.932;2023-03-01T09:19:59;99997.28;;;5.85;100.00
7966;BME280;4028;43.272;26.932;2023-03-01T09:22:25;99997.84;;;5.90;100.00
7966;BME280;4028;43.272;26.932;2023-03-01T09:24:50;99993.03;;;5.82;100.00
7966;BME280;4028;43.272;26.932;2023-03-01T09:27:16;99998.13;;;5.85;100.00
7966;BME280;4028;43.272;26.932;2023-03-01T09:29:44;99997.50;;;5.96;100.00
7966;BME280;4028;43.272;26.932;2023-03-01T09:32:10;99999.19;;;5.97;100.00
7966;BME280;4028;43.272;26.932;2023-03-01T09:34:35;99990.91;;;6.03;100.00
7966;BME280;4028;43.272;26.932;2023-03-01T09:37:24;99996.94;;;6.05;100.00
7966;BME280;4028;43.272;26.932;2023-03-01T09:39:49;99993.47;;;6.05;100.00
7966;BME280;4028;43.272;26.932;2023-03-01T09:42:15;99996.56;;;6.11;100.00
7966;BME280;4028;43.272;26.932;2023-03-01T09:44:57;99987.94;;;6.09;100.00
7966;BME280;4028;43.272;26.932;2023-03-01T09:47:31;99997.50;;;6.10;100.00
7966;BME280;4028;43.272;26.932;2023-03-01T09:54:56;99990.47;;;5.96;100.00
7966;BME280;4028;43.272;26.932;2023-03-01T09:57:38;99985.94;;;6.13;100.00
7966;BME280;4028;43.272;26.932;2023-03-01T10:03:22;99974.69;;;6.11;100.00
7966;BME280;4028;43.272;26.932;2023-03-01T10:08:30;99979.00;;;5.97;100.00
7966;BME280;4028;43.272;26.932;2023-03-01T10:11:01;99977.16;;;5.99;100.00
7966;BME280;4028;43.272;26.932;2023-03-01T10:13:42;99976.38;;;6.12;100.00
7966;BME280;4028;43.272;26.932;2023-03-01T10:19:25;99966.03;;;6.09;100.00
7966;BME280;4028;43.272;26.932;2023-03-01T10:21:53;99962.00;;;6.17;100.00
7966;BME280;4028;43.272;26.932;2023-03-01T10:24:22;99958.81;;;6.27;100.00
7966;BME280;4028;43.272;26.932;2023-03-01T10:26:54;99956.91;;;6.29;100.00
7966;BME280;4028;43.272;26.932;2023-03-01T10:29:24;99959.84;;;6.24;100.00
7966;BME280;4028;43.272;26.932;2023-03-01T10:31:52;99953.94;;;6.35;100.00
7966;BME280;4028;43.272;26.932;2023-03-01T10:34:19;99955.34;;;6.26;100.00
7966;BME280;4028;43.272;26.932;2023-03-01T10:36:50;99952.59;;;6.28;100.00
7966;BME280;4028;43.272;26.932;2023-03-01T10:39:25;99944.63;;;6.29;100.00
7966;BME280;4028;43.272;26.932;2023-03-01T10:41:55;99942.00;;;6.29;100.00
7966;BME280;4028;43.272;26.932;2023-03-01T10:44:45;99952.44;;;6.31;100.00
7966;BME280;4028;43.272;26.932;2023-03-01T10:47:21;99940.81;;;6.47;100.00
7966;BME280;4028;43.272;26.932;2023-03-01T10:49:54;99930.72;;;6.41;100.00
7966;BME280;4028;43.272;26.932;2023-03-01T10:52:24;99931.38;;;6.45;100.00
7966;BME280;4028;43.272;26.932;2023-03-01T10:54:56;99930.31;;;6.47;100.00
7966;BME280;4028;43.272;26.932;2023-03-01T10:57:34;99917.72;;;6.53;100.00
7966;BME280;4028;43.272;26.932;2023-03-01T11:00:24;99904.69;;;6.51;100.00
7966;BME280;4028;43.272;26.932;2023-03-01T11:05:25;99892.59;;;6.34;100.00
7966;BME280;4028;43.272;26.932;2023-03-01T11:07:56;99891.56;;;6.37;100.00
7966;BME280;4028;43.272;26.932;2023-03-01T11:10:26;99885.19;;;6.41;100.00
7966;BME280;4028;43.272;26.932;2023-03-01T11:12:53;99892.00;;;6.43;100.00
7966;BME280;4028;43.272;26.932;2023-03-01T11:15:28;99882.88;;;6.49;100.00
7966;BME280;4028;43.272;26.932;2023-03-01T11:17:56;99872.16;;;6.52;100.00
7966;BME280;4028;43.272;26.932;2023-03-01T11:20:26;99874.22;;;6.61;100.00
7966;BME280;4028;43.272;26.932;2023-03-01T11:22:59;99867.66;;;6.54;100.00
7966;BME280;4028;43.272;26.932;2023-03-01T11:25:31;99872.72;;;6.57;100.00
7966;BME280;4028;43.272;26.932;2023-03-01T11:27:59;99867.22;;;6.60;100.00
7966;BME280;4028;43.272;26.932;2023-03-01T11:30:29;99851.69;;;6.57;100.00
7966;BME280;4028;43.272;26.932;2023-03-01T11:35:55;99862.47;;;6.40;100.00
7966;BME280;4028;43.272;26.932;2023-03-01T11:38:25;99860.28;;;6.46;100.00
7966;BME280;4028;43.272;26.932;2023-03-01T11:40:59;99854.25;;;6.44;100.00
7966;BME280;4028;43.272;26.932;2023-03-01T11:51:09;99864.94;;;6.29;100.00
7966;BME280;4028;43.272;26.932;2023-03-01T11:54:01;99856.50;;;6.23;100.00
7966;BME280;4028;43.272;26.932;2023-03-01T11:56:36;99858.66;;;6.31;100.00
7966;BME280;4028;43.272;26.932;2023-03-01T12:07:25;99860.50;;;6.29;100.00
7966;BME280;4028;43.272;26.932;2023-03-01T12:12:53;99855.06;;;6.32;100.00
7966;BME280;4028;43.272;26.932;2023-03-01T12:15:57;99855.59;;;6.37;100.00
7966;BME280;4028;43.272;26.932;2023-03-01T12:21:28;99843.41;;;6.36;100.00
7966;BME280;4028;43.272;26.932;2023-03-01T12:29:38;99843.59;;;6.33;100.00
7966;BME280;4028;43.272;26.932;2023-03-01T12:40:46;99835.81;;;6.32;100.00
7966;BME280;4028;43.272;26.932;2023-03-01T12:48:19;99830.44;;;6.20;100.00
7966;BME280;4028;43.272;26.932;2023-03-01T12:50:52;99838.94;;;6.24;100.00
7966;BME280;4028;43.272;26.932;2023-03-01T12:53:51;99835.16;;;6.28;100.00
7966;BME280;4028;43.272;26.932;2023-03-01T12:56:23;99831.59;;;6.29;100.00
7966;BME280;4028;43.272;26.932;2023-03-01T13:09:35;99838.09;;;6.23;100.00
7966;BME280;4028;43.272;26.932;2023-03-01T13:15:36;99829.06;;;6.28;100.00
7966;BME280;4028;43.272;26.932;2023-03-01T13:23:05;99815.22;;;6.25;100.00
7966;BME280;4028;43.272;26.932;2023-03-01T13:25:32;99831.13;;;6.37;100.00
7966;BME280;4028;43.272;26.932;2023-03-01T13:31:04;99835.84;;;6.44;100.00
7966;BME280;4028;43.272;26.932;2023-03-01T13:35:56;99826.22;;;6.45;100.00
7966;BME280;4028;43.272;26.932;2023-03-01T13:41:09;99825.03;;;6.49;100.00
7966;BME280;4028;43.272;26.932;2023-03-01T13:43:37;99818.06;;;6.35;100.00
7966;BME280;4028;43.272;26.932;2023-03-01T13:46:15;99822.28;;;6.38;100.00
7966;BME280;4028;43.272;26.932;2023-03-01T13:48:43;99813.78;;;6.47;100.00
7966;BME280;4028;43.272;26.932;2023-03-01T13:51:11;99817.78;;;6.53;100.00
7966;BME280;4028;43.272;26.932;2023-03-01T13:53:44;99812.31;;;6.43;100.00
7966;BME280;4028;43.272;26.932;2023-03-01T13:56:16;99813.06;;;6.45;100.00
7966;BME280;4028;43.272;26.932;2023-03-01T13:58:49;99821.53;;;6.36;100.00
7966;BME280;4028;43.272;26.932;2023-03-01T14:01:34;99811.63;;;6.27;100.00
7966;BME280;4028;43.272;26.932;2023-03-01T14:04:01;99813.56;;;6.37;100.00
7966;BME280;4028;43.272;26.932;2023-03-01T14:06:30;99810.81;;;6.39;100.00
7966;BME280;4028;43.272;26.932;2023-03-01T14:09:09;99804.72;;;6.38;100.00
7966;BME280;4028;43.272;26.932;2023-03-01T14:14:31;99776.50;;;6.28;100.00
7966;BME280;4028;43.272;26.932;2023-03-01T14:17:58;99805.16;;;6.45;100.00
7966;BME280;4028;43.272;26.932;2023-03-01T14:20:16;99801.91;;;6.54;100.00
7966;BME280;4028;43.272;26.932;2023-03-01T14:22:42;99805.16;;;6.45;100.00
7966;BME280;4028;43.272;26.932;2023-03-01T14:25:38;99803.16;;;6.36;100.00
7966;BME280;4028;43.272;26.932;2023-03-01T14:30:51;99800.44;;;6.50;100.00
7966;BME280;4028;43.272;26.932;2023-03-01T14:33:29;99811.06;;;6.48;100.00
7966;BME280;4028;43.272;26.932;2023-03-01T14:36:05;99807.16;;;6.54;100.00
7966;BME280;4028;43.272;26.932;2023-03-01T14:38:36;99817.44;;;6.44;100.00
7966;BME280;4028;43.272;26.932;2023-03-01T14:41:06;99804.22;;;6.59;100.00
7966;BME280;4028;43.272;26.932;2023-03-01T14:43:33;99801.50;;;6.60;100.00
7966;BME280;4028;43.272;26.932;2023-03-01T14:45:59;99800.13;;;6.55;100.00
7966;BME280;4028;43.272;26.932;2023-03-01T14:48:26;99807.63;;;6.61;100.00
7966;BME280;4028;43.272;26.932;2023-03-01T14:50:53;99803.59;;;6.55;100.00
7966;BME280;4028;43.272;26.932;2023-03-01T14:53:24;99803.50;;;6.57;100.00
7966;BME280;4028;43.272;26.932;2023-03-01T14:55:54;99796.88;;;6.51;100.00
7966;BME280;4028;43.272;26.932;2023-03-01T14:58:23;99790.66;;;6.52;100.00
7966;BME280;4028;43.272;26.932;2023-03-01T15:01:01;99780.34;;;6.49;100.00